sensor_id;sensor_type;location;lat;lon;timestamp;P1;durP1;ratioP1;P2;durP2;ratioP2
54247;SDS011;40161;39.768;2.722;2022-09-21T00:02:25;2.83;;;1.48;;
54247;SDS011;40161;39.768;2.722;2022-09-21T00:04:50;4.00;;;1.60;;
54247;SDS011;40161;39.768;2.722;2022-09-21T00:07:15;4.53;;;1.60;;
54247;SDS011;40161;39.768;2.722;2022-09-21T00:09:41;3.63;;;1.50;;
54247;SDS011;40161;39.768;2.722;2022-09-21T00:12:06;3.53;;;1.45;;
54247;SDS011;40161;39.768;2.722;2022-09-21T00:14:33;3.97;;;1.60;;
54247;SDS011;40161;39.768;2.722;2022-09-21T00:16:59;3.80;;;1.48;;
54247;SDS011;40161;39.768;2.722;2022-09-21T00:19:24;3.72;;;1.55;;
54247;SDS011;40161;39.768;2.722;2022-09-21T00:21:53;4.18;;;1.60;;
54247;SDS011;40161;39.768;2.722;2022-09-21T00:24:19;4.47;;;1.77;;
54247;SDS011;40161;39.768;2.722;2022-09-21T00:26:44;4.45;;;1.60;;
54247;SDS011;40161;39.768;2.722;2022-09-21T00:29:10;4.68;;;1.58;;
54247;SDS011;40161;39.768;2.722;2022-09-21T00:31:36;4.43;;;1.70;;
54247;SDS011;40161;39.768;2.722;2022-09-21T00:34:01;5.35;;;1.70;;
54247;SDS011;40161;39.768;2.722;2022-09-21T00:36:27;6.07;;;1.50;;
54247;SDS011;40161;39.768;2.722;2022-09-21T00:38:57;5.22;;;1.88;;
54247;SDS011;40161;39.768;2.722;2022-09-21T00:41:26;4.60;;;1.85;;
54247;SDS011;40161;39.768;2.722;2022-09-21T00:46:40;3.42;;;1.30;;
54247;SDS011;40161;39.768;2.722;2022-09-21T00:49:07;3.47;;;1.45;;
54247;SDS011;40161;39.768;2.722;2022-09-21T00:51:33;3.75;;;1.80;;
54247;SDS011;40161;39.768;2.722;2022-09-21T00:54:00;3.50;;;1.40;;
54247;SDS011;40161;39.768;2.722;2022-09-21T00:56:31;4.00;;;1.48;;
54247;SDS011;40161;39.768;2.722;2022-09-21T00:58:58;5.57;;;2.22;;
54247;SDS011;40161;39.768;2.722;2022-09-21T01:01:23;4.50;;;1.60;;
54247;SDS011;40161;39.768;2.722;2022-09-21T01:03:49;3.72;;;1.55;;
54247;SDS011;40161;39.768;2.722;2022-09-21T01:06:17;4.80;;;1.70;;
54247;SDS011;40161;39.768;2.722;2022-09-21T01:08:45;3.40;;;1.58;;
54247;SDS011;40161;39.768;2.722;2022-09-21T01:16:50;2.95;;;1.60;;
54247;SDS011;40161;39.768;2.722;2022-09-21T01:31:21;3.55;;;1.60;;
54247;SDS011;40161;39.768;2.722;2022-09-21T01:33:52;4.65;;;1.77;;
54247;SDS011;40161;39.768;2.722;2022-09-21T01:36:22;4.20;;;1.60;;
54247;SDS011;40161;39.768;2.722;2022-09-21T01:38:57;3.38;;;1.63;;
54247;SDS011;40161;39.768;2.722;2022-09-21T01:41:30;3.28;;;1.65;;
54247;SDS011;40161;39.768;2.722;2022-09-21T01:43:57;4.88;;;1.80;;
54247;SDS011;40161;39.768;2.722;2022-09-21T01:46:47;3.70;;;1.50;;
54247;SDS011;40161;39.768;2.722;2022-09-21T01:49:15;4.18;;;1.73;;
54247;SDS011;40161;39.768;2.722;2022-09-21T01:51:49;4.30;;;1.80;;
54247;SDS011;40161;39.768;2.722;2022-09-21T01:54:19;3.87;;;1.90;;
54247;SDS011;40161;39.768;2.722;2022-09-21T01:56:54;5.28;;;2.15;;
54247;SDS011;40161;39.768;2.722;2022-09-21T02:02:12;4.13;;;2.08;;
54247;SDS011;40161;39.768;2.722;2022-09-21T02:04:43;5.40;;;1.83;;
54247;SDS011;40161;39.768;2.722;2022-09-21T02:07:08;3.95;;;1.60;;
54247;SDS011;40161;39.768;2.722;2022-09-21T02:09:34;3.80;;;1.55;;
54247;SDS011;40161;39.768;2.722;2022-09-21T02:12:01;4.05;;;1.75;;
54247;SDS011;40161;39.768;2.722;2022-09-21T02:14:28;4.32;;;1.55;;
54247;SDS011;40161;39.768;2.722;2022-09-21T02:19:53;3.78;;;1.65;;
54247;SDS011;40161;39.768;2.722;2022-09-21T02:22:30;3.53;;;1.80;;
54247;SDS011;40161;39.768;2.722;2022-09-21T02:25:12;3.80;;;1.80;;
54247;SDS011;40161;39.768;2.722;2022-09-21T02:30:20;3.60;;;1.75;;
54247;SDS011;40161;39.768;2.722;2022-09-21T02:32:58;4.43;;;2.00;;
54247;SDS011;40161;39.768;2.722;2022-09-21T02:35:40;5.80;;;2.00;;
54247;SDS011;40161;39.768;2.722;2022-09-21T02:46:28;6.40;;;1.83;;
54247;SDS011;40161;39.768;2.722;2022-09-21T02:49:00;4.88;;;1.80;;
54247;SDS011;40161;39.768;2.722;2022-09-21T02:51:33;3.58;;;1.60;;
54247;SDS011;40161;39.768;2.722;2022-09-21T02:54:04;3.85;;;1.60;;
54247;SDS011;40161;39.768;2.722;2022-09-21T02:56:32;4.05;;;1.67;;
54247;SDS011;40161;39.768;2.722;2022-09-21T02:59:00;4.20;;;1.92;;
54247;SDS011;40161;39.768;2.722;2022-09-21T03:01:29;3.75;;;1.65;;
54247;SDS011;40161;39.768;2.722;2022-09-21T03:03:55;3.05;;;1.42;;
54247;SDS011;40161;39.768;2.722;2022-09-21T03:06:21;4.35;;;1.67;;
54247;SDS011;40161;39.768;2.722;2022-09-21T03:08:47;3.83;;;1.40;;
54247;SDS011;40161;39.768;2.722;2022-09-21T03:11:16;5.38;;;1.90;;
54247;SDS011;40161;39.768;2.722;2022-09-21T03:13:42;4.10;;;1.83;;
54247;SDS011;40161;39.768;2.722;2022-09-21T03:16:08;4.28;;;1.75;;
54247;SDS011;40161;39.768;2.722;2022-09-21T03:18:35;3.50;;;1.60;;
54247;SDS011;40161;39.768;2.722;2022-09-21T03:21:01;3.58;;;1.70;;
54247;SDS011;40161;39.768;2.722;2022-09-21T03:23:27;4.00;;;1.70;;
54247;SDS011;40161;39.768;2.722;2022-09-21T03:25:53;4.35;;;2.00;;
54247;SDS011;40161;39.768;2.722;2022-09-21T03:28:19;3.63;;;1.55;;
54247;SDS011;40161;39.768;2.722;2022-09-21T03:30:46;4.13;;;1.85;;
54247;SDS011;40161;39.768;2.722;2022-09-21T03:33:13;4.15;;;1.88;;
54247;SDS011;40161;39.768;2.722;2022-09-21T03:35:39;3.30;;;1.60;;
54247;SDS011;40161;39.768;2.722;2022-09-21T03:38:05;3.55;;;1.65;;
54247;SDS011;40161;39.768;2.722;2022-09-21T03:40:31;4.00;;;1.63;;
54247;SDS011;40161;39.768;2.722;2022-09-21T03:42:57;4.05;;;1.65;;
54247;SDS011;40161;39.768;2.722;2022-09-21T03:45:22;4.68;;;1.77;;
54247;SDS011;40161;39.768;2.722;2022-09-21T03:47:53;3.85;;;1.55;;
54247;SDS011;40161;39.768;2.722;2022-09-21T03:50:20;5.53;;;2.00;;
54247;SDS011;40161;39.768;2.722;2022-09-21T03:52:46;3.92;;;1.67;;
54247;SDS011;40161;39.768;2.722;2022-09-21T03:55:11;3.55;;;1.90;;
54247;SDS011;40161;39.768;2.722;2022-09-21T03:57:37;3.83;;;1.60;;
54247;SDS011;40161;39.768;2.722;2022-09-21T04:00:04;4.68;;;1.63;;
54247;SDS011;40161;39.768;2.722;2022-09-21T04:02:32;4.85;;;1.30;;
54247;SDS011;40161;39.768;2.722;2022-09-21T04:04:57;3.20;;;1.52;;
54247;SDS011;40161;39.768;2.722;2022-09-21T04:07:23;3.33;;;1.58;;
54247;SDS011;40161;39.768;2.722;2022-09-21T04:09:48;4.38;;;1.92;;
54247;SDS011;40161;39.768;2.722;2022-09-21T04:12:14;6.78;;;1.85;;
54247;SDS011;40161;39.768;2.722;2022-09-21T04:14:39;3.22;;;1.77;;
54247;SDS011;40161;39.768;2.722;2022-09-21T04:17:05;5.00;;;1.70;;
54247;SDS011;40161;39.768;2.722;2022-09-21T04:19:30;4.25;;;1.52;;
54247;SDS011;40161;39.768;2.722;2022-09-21T04:21:56;4.93;;;1.75;;
54247;SDS011;40161;39.768;2.722;2022-09-21T04:24:22;3.70;;;1.55;;
54247;SDS011;40161;39.768;2.722;2022-09-21T04:26:47;4.57;;;1.58;;
54247;SDS011;40161;39.768;2.722;2022-09-21T04:29:13;3.47;;;1.60;;
54247;SDS011;40161;39.768;2.722;2022-09-21T04:31:40;4.57;;;1.85;;
54247;SDS011;40161;39.768;2.722;2022-09-21T04:34:06;4.30;;;1.70;;
54247;SDS011;40161;39.768;2.722;2022-09-21T04:36:33;5.03;;;1.75;;
54247;SDS011;40161;39.768;2.722;2022-09-21T04:39:02;3.50;;;1.60;;
54247;SDS011;40161;39.768;2.722;2022-09-21T04:41:28;4.85;;;1.63;;
54247;SDS011;40161;39.768;2.722;2022-09-21T04:43:53;8.02;;;2.10;;
54247;SDS011;40161;39.768;2.722;2022-09-21T04:46:19;4.45;;;1.80;;
54247;SDS011;40161;39.768;2.722;2022-09-21T04:48:45;4.68;;;2.15;;
54247;SDS011;40161;39.768;2.722;2022-09-21T04:51:11;4.40;;;1.58;;
54247;SDS011;40161;39.768;2.722;2022-09-21T04:53:38;6.32;;;2.00;;
54247;SDS011;40161;39.768;2.722;2022-09-21T04:56:07;3.85;;;1.50;;
54247;SDS011;40161;39.768;2.722;2022-09-21T04:58:34;5.43;;;1.83;;
54247;SDS011;40161;39.768;2.722;2022-09-21T05:01:00;3.13;;;1.50;;
54247;SDS011;40161;39.768;2.722;2022-09-21T05:03:25;5.63;;;1.85;;
54247;SDS011;40161;39.768;2.722;2022-09-21T05:05:53;4.50;;;1.50;;
54247;SDS011;40161;39.768;2.722;2022-09-21T05:08:20;3.55;;;1.40;;
54247;SDS011;40161;39.768;2.722;2022-09-21T05:11:05;4.63;;;1.65;;
54247;SDS011;40161;39.768;2.722;2022-09-21T05:13:31;4.15;;;1.70;;
54247;SDS011;40161;39.768;2.722;2022-09-21T05:15:57;4.55;;;1.50;;
54247;SDS011;40161;39.768;2.722;2022-09-21T05:18:22;7.28;;;1.95;;
54247;SDS011;40161;39.768;2.722;2022-09-21T05:20:54;5.65;;;1.90;;
54247;SDS011;40161;39.768;2.722;2022-09-21T05:23:24;6.07;;;2.15;;
54247;SDS011;40161;39.768;2.722;2022-09-21T05:25:51;5.35;;;2.00;;
54247;SDS011;40161;39.768;2.722;2022-09-21T05:28:17;4.30;;;1.88;;
54247;SDS011;40161;39.768;2.722;2022-09-21T05:30:43;4.53;;;2.05;;
54247;SDS011;40161;39.768;2.722;2022-09-21T05:33:17;5.78;;;2.00;;
54247;SDS011;40161;39.768;2.722;2022-09-21T05:35:49;6.53;;;2.10;;
54247;SDS011;40161;39.768;2.722;2022-09-21T05:38:24;4.78;;;2.22;;
54247;SDS011;40161;39.768;2.722;2022-09-21T05:40:50;6.40;;;2.38;;
54247;SDS011;40161;39.768;2.722;2022-09-21T05:43:17;6.30;;;2.08;;
54247;SDS011;40161;39.768;2.722;2022-09-21T05:45:46;6.55;;;1.70;;
54247;SDS011;40161;39.768;2.722;2022-09-21T05:50:55;7.82;;;2.05;;
54247;SDS011;40161;39.768;2.722;2022-09-21T05:57:01;7.30;;;1.90;;
54247;SDS011;40161;39.768;2.722;2022-09-21T06:05:12;3.88;;;1.83;;
54247;SDS011;40161;39.768;2.722;2022-09-21T06:07:39;3.90;;;1.80;;
54247;SDS011;40161;39.768;2.722;2022-09-21T06:10:06;5.47;;;1.83;;
54247;SDS011;40161;39.768;2.722;2022-09-21T06:12:32;5.70;;;2.40;;
54247;SDS011;40161;39.768;2.722;2022-09-21T06:14:58;7.50;;;3.25;;
54247;SDS011;40161;39.768;2.722;2022-09-21T06:17:24;5.57;;;2.70;;
54247;SDS011;40161;39.768;2.722;2022-09-21T06:19:51;10.63;;;4.68;;
54247;SDS011;40161;39.768;2.722;2022-09-21T06:22:17;9.15;;;4.00;;
54247;SDS011;40161;39.768;2.722;2022-09-21T06:24:43;10.55;;;4.78;;
54247;SDS011;40161;39.768;2.722;2022-09-21T06:27:09;14.20;;;5.88;;
54247;SDS011;40161;39.768;2.722;2022-09-21T06:29:34;10.95;;;3.90;;
54247;SDS011;40161;39.768;2.722;2022-09-21T06:32:03;8.90;;;3.78;;
54247;SDS011;40161;39.768;2.722;2022-09-21T06:34:29;8.93;;;3.25;;
54247;SDS011;40161;39.768;2.722;2022-09-21T06:36:55;6.93;;;3.08;;
54247;SDS011;40161;39.768;2.722;2022-09-21T06:39:21;9.75;;;3.40;;
54247;SDS011;40161;39.768;2.722;2022-09-21T06:41:46;10.25;;;3.72;;
54247;SDS011;40161;39.768;2.722;2022-09-21T06:44:12;12.25;;;4.40;;
54247;SDS011;40161;39.768;2.722;2022-09-21T06:46:37;10.40;;;4.85;;
54247;SDS011;40161;39.768;2.722;2022-09-21T06:49:03;8.60;;;4.00;;
54247;SDS011;40161;39.768;2.722;2022-09-21T06:51:28;12.27;;;4.15;;
54247;SDS011;40161;39.768;2.722;2022-09-21T06:53:55;10.32;;;4.47;;
54247;SDS011;40161;39.768;2.722;2022-09-21T06:56:21;9.63;;;4.95;;
54247;SDS011;40161;39.768;2.722;2022-09-21T06:58:47;9.35;;;5.03;;
54247;SDS011;40161;39.768;2.722;2022-09-21T07:01:13;10.90;;;4.60;;
54247;SDS011;40161;39.768;2.722;2022-09-21T07:03:39;9.23;;;4.35;;
54247;SDS011;40161;39.768;2.722;2022-09-21T07:06:06;11.80;;;5.00;;
54247;SDS011;40161;39.768;2.722;2022-09-21T07:08:33;9.48;;;4.32;;
54247;SDS011;40161;39.768;2.722;2022-09-21T07:11:00;9.27;;;4.30;;
54247;SDS011;40161;39.768;2.722;2022-09-21T07:13:27;7.35;;;3.40;;
54247;SDS011;40161;39.768;2.722;2022-09-21T07:15:53;7.75;;;3.40;;
54247;SDS011;40161;39.768;2.722;2022-09-21T07:18:18;7.85;;;3.50;;
54247;SDS011;40161;39.768;2.722;2022-09-21T07:20:45;9.85;;;3.78;;
54247;SDS011;40161;39.768;2.722;2022-09-21T07:23:13;8.10;;;3.47;;
54247;SDS011;40161;39.768;2.722;2022-09-21T07:25:40;7.38;;;3.15;;
54247;SDS011;40161;39.768;2.722;2022-09-21T07:28:10;7.57;;;3.30;;
54247;SDS011;40161;39.768;2.722;2022-09-21T07:30:37;7.68;;;2.97;;
54247;SDS011;40161;39.768;2.722;2022-09-21T07:33:03;9.98;;;3.30;;
54247;SDS011;40161;39.768;2.722;2022-09-21T07:35:29;6.75;;;2.95;;
54247;SDS011;40161;39.768;2.722;2022-09-21T07:37:59;5.80;;;2.78;;
54247;SDS011;40161;39.768;2.722;2022-09-21T07:40:26;6.43;;;2.83;;
54247;SDS011;40161;39.768;2.722;2022-09-21T07:42:52;7.15;;;2.97;;
54247;SDS011;40161;39.768;2.722;2022-09-21T07:45:22;5.85;;;2.53;;
54247;SDS011;40161;39.768;2.722;2022-09-21T07:47:48;9.77;;;2.80;;
54247;SDS011;40161;39.768;2.722;2022-09-21T07:50:13;9.73;;;2.83;;
54247;SDS011;40161;39.768;2.722;2022-09-21T07:52:39;4.22;;;1.92;;
54247;SDS011;40161;39.768;2.722;2022-09-21T07:55:05;4.50;;;2.05;;
54247;SDS011;40161;39.768;2.722;2022-09-21T07:57:30;7.05;;;2.20;;
54247;SDS011;40161;39.768;2.722;2022-09-21T08:00:14;6.57;;;1.85;;
54247;SDS011;40161;39.768;2.722;2022-09-21T08:02:40;5.78;;;1.67;;
54247;SDS011;40161;39.768;2.722;2022-09-21T08:05:06;3.92;;;1.83;;
54247;SDS011;40161;39.768;2.722;2022-09-21T08:07:32;4.70;;;2.03;;
54247;SDS011;40161;39.768;2.722;2022-09-21T08:09:59;4.50;;;1.60;;
54247;SDS011;40161;39.768;2.722;2022-09-21T08:12:24;7.57;;;2.40;;
54247;SDS011;40161;39.768;2.722;2022-09-21T08:14:50;10.70;;;2.05;;
54247;SDS011;40161;39.768;2.722;2022-09-21T08:17:15;4.70;;;1.80;;
54247;SDS011;40161;39.768;2.722;2022-09-21T08:19:41;9.23;;;3.60;;
54247;SDS011;40161;39.768;2.722;2022-09-21T08:22:07;9.32;;;2.78;;
54247;SDS011;40161;39.768;2.722;2022-09-21T08:24:32;7.65;;;2.67;;
54247;SDS011;40161;39.768;2.722;2022-09-21T08:26:59;7.40;;;2.42;;
54247;SDS011;40161;39.768;2.722;2022-09-21T08:29:24;5.68;;;2.47;;
54247;SDS011;40161;39.768;2.722;2022-09-21T08:31:50;8.20;;;3.25;;
54247;SDS011;40161;39.768;2.722;2022-09-21T08:34:17;6.97;;;3.08;;
54247;SDS011;40161;39.768;2.722;2022-09-21T08:36:44;7.05;;;3.50;;
54247;SDS011;40161;39.768;2.722;2022-09-21T08:39:10;5.18;;;2.67;;
54247;SDS011;40161;39.768;2.722;2022-09-21T08:44:27;5.38;;;2.15;;
54247;SDS011;40161;39.768;2.722;2022-09-21T08:47:07;5.93;;;2.30;;
54247;SDS011;40161;39.768;2.722;2022-09-21T08:49:41;5.90;;;1.90;;
54247;SDS011;40161;39.768;2.722;2022-09-21T08:52:13;5.35;;;1.63;;
54247;SDS011;40161;39.768;2.722;2022-09-21T08:55:01;5.68;;;2.10;;
54247;SDS011;40161;39.768;2.722;2022-09-21T08:57:33;3.63;;;1.80;;
54247;SDS011;40161;39.768;2.722;2022-09-21T09:00:00;5.20;;;1.60;;
54247;SDS011;40161;39.768;2.722;2022-09-21T09:02:32;4.45;;;2.08;;
54247;SDS011;40161;39.768;2.722;2022-09-21T09:18:54;4.38;;;1.48;;
54247;SDS011;40161;39.768;2.722;2022-09-21T09:21:33;3.72;;;1.70;;
54247;SDS011;40161;39.768;2.722;2022-09-21T09:29:17;6.63;;;2.00;;
54247;SDS011;40161;39.768;2.722;2022-09-21T09:31:43;4.90;;;2.00;;
54247;SDS011;40161;39.768;2.722;2022-09-21T09:36:46;5.13;;;2.25;;
54247;SDS011;40161;39.768;2.722;2022-09-21T09:39:16;3.80;;;1.60;;
54247;SDS011;40161;39.768;2.722;2022-09-21T09:41:55;5.18;;;1.73;;
54247;SDS011;40161;39.768;2.722;2022-09-21T09:52:45;4.65;;;1.88;;
54247;SDS011;40161;39.768;2.722;2022-09-21T09:55:14;4.53;;;1.83;;
54247;SDS011;40161;39.768;2.722;2022-09-21T09:57:44;3.83;;;1.80;;
54247;SDS011;40161;39.768;2.722;2022-09-21T10:00:15;4.78;;;1.85;;
54247;SDS011;40161;39.768;2.722;2022-09-21T10:02:50;4.57;;;1.70;;
54247;SDS011;40161;39.768;2.722;2022-09-21T10:08:17;5.30;;;1.83;;
54247;SDS011;40161;39.768;2.722;2022-09-21T10:11:11;5.22;;;1.75;;
54247;SDS011;40161;39.768;2.722;2022-09-21T10:13:40;3.55;;;1.77;;
54247;SDS011;40161;39.768;2.722;2022-09-21T10:16:17;4.85;;;1.63;;
54247;SDS011;40161;39.768;2.722;2022-09-21T10:18:55;5.20;;;2.50;;
54247;SDS011;40161;39.768;2.722;2022-09-21T10:21:26;4.40;;;1.50;;
54247;SDS011;40161;39.768;2.722;2022-09-21T10:24:13;4.65;;;1.88;;
54247;SDS011;40161;39.768;2.722;2022-09-21T10:34:29;5.05;;;1.92;;
54247;SDS011;40161;39.768;2.722;2022-09-21T10:36:58;4.75;;;1.80;;
54247;SDS011;40161;39.768;2.722;2022-09-21T10:39:32;4.28;;;1.85;;
54247;SDS011;40161;39.768;2.722;2022-09-21T10:42:02;3.97;;;1.67;;
54247;SDS011;40161;39.768;2.722;2022-09-21T10:44:44;5.10;;;1.67;;
54247;SDS011;40161;39.768;2.722;2022-09-21T10:49:46;4.80;;;1.83;;
54247;SDS011;40161;39.768;2.722;2022-09-21T10:52:14;7.82;;;1.80;;
54247;SDS011;40161;39.768;2.722;2022-09-21T10:54:43;5.50;;;1.65;;
54247;SDS011;40161;39.768;2.722;2022-09-21T10:57:13;4.43;;;1.60;;
54247;SDS011;40161;39.768;2.722;2022-09-21T10:59:41;3.90;;;1.75;;
54247;SDS011;40161;39.768;2.722;2022-09-21T11:02:25;4.18;;;1.67;;
54247;SDS011;40161;39.768;2.722;2022-09-21T11:05:42;4.32;;;1.60;;
54247;SDS011;40161;39.768;2.722;2022-09-21T11:07:59;4.70;;;1.83;;
54247;SDS011;40161;39.768;2.722;2022-09-21T11:13:38;4.18;;;1.90;;
54247;SDS011;40161;39.768;2.722;2022-09-21T11:19:02;6.82;;;2.00;;
54247;SDS011;40161;39.768;2.722;2022-09-21T11:36:12;4.40;;;1.58;;
54247;SDS011;40161;39.768;2.722;2022-09-21T11:39:03;6.75;;;2.03;;
54247;SDS011;40161;39.768;2.722;2022-09-21T11:41:50;4.53;;;1.67;;
54247;SDS011;40161;39.768;2.722;2022-09-21T11:47:04;4.13;;;1.50;;
54247;SDS011;40161;39.768;2.722;2022-09-21T11:49:38;4.28;;;2.00;;
54247;SDS011;40161;39.768;2.722;2022-09-21T11:57:40;5.97;;;2.17;;
54247;SDS011;40161;39.768;2.722;2022-09-21T12:00:16;5.82;;;1.90;;
54247;SDS011;40161;39.768;2.722;2022-09-21T12:05:35;5.43;;;1.77;;
54247;SDS011;40161;39.768;2.722;2022-09-21T12:08:29;10.52;;;2.08;;
54247;SDS011;40161;39.768;2.722;2022-09-21T12:20:02;4.60;;;1.60;;
54247;SDS011;40161;39.768;2.722;2022-09-21T12:22:39;6.68;;;1.52;;
54247;SDS011;40161;39.768;2.722;2022-09-21T12:25:25;3.55;;;1.73;;
54247;SDS011;40161;39.768;2.722;2022-09-21T12:27:58;4.50;;;1.90;;
54247;SDS011;40161;39.768;2.722;2022-09-21T12:30:56;5.40;;;1.90;;
54247;SDS011;40161;39.768;2.722;2022-09-21T12:34:17;4.55;;;1.70;;
54247;SDS011;40161;39.768;2.722;2022-09-21T12:36:34;3.03;;;1.55;;
54247;SDS011;40161;39.768;2.722;2022-09-21T12:39:17;5.03;;;1.77;;
54247;SDS011;40161;39.768;2.722;2022-09-21T12:41:51;5.72;;;1.58;;
54247;SDS011;40161;39.768;2.722;2022-09-21T12:50:20;3.55;;;1.50;;
54247;SDS011;40161;39.768;2.722;2022-09-21T12:52:51;4.95;;;1.70;;
54247;SDS011;40161;39.768;2.722;2022-09-21T12:57:59;4.63;;;1.90;;
54247;SDS011;40161;39.768;2.722;2022-09-21T13:00:46;5.35;;;1.83;;
54247;SDS011;40161;39.768;2.722;2022-09-21T13:03:26;5.32;;;1.67;;
54247;SDS011;40161;39.768;2.722;2022-09-21T13:09:11;3.90;;;1.67;;
54247;SDS011;40161;39.768;2.722;2022-09-21T13:14:28;4.03;;;1.65;;
54247;SDS011;40161;39.768;2.722;2022-09-21T13:17:00;5.63;;;1.67;;
54247;SDS011;40161;39.768;2.722;2022-09-21T13:19:32;5.80;;;2.20;;
54247;SDS011;40161;39.768;2.722;2022-09-21T13:24:45;4.15;;;1.50;;
54247;SDS011;40161;39.768;2.722;2022-09-21T13:33:38;7.22;;;1.70;;
54247;SDS011;40161;39.768;2.722;2022-09-21T13:39:11;5.65;;;1.88;;
54247;SDS011;40161;39.768;2.722;2022-09-21T13:41:39;4.18;;;1.83;;
54247;SDS011;40161;39.768;2.722;2022-09-21T13:44:34;5.47;;;1.75;;
54247;SDS011;40161;39.768;2.722;2022-09-21T13:47:04;5.32;;;1.67;;
54247;SDS011;40161;39.768;2.722;2022-09-21T13:49:53;4.70;;;1.80;;
54247;SDS011;40161;39.768;2.722;2022-09-21T13:52:21;6.28;;;1.80;;
54247;SDS011;40161;39.768;2.722;2022-09-21T13:55:04;4.63;;;1.65;;
54247;SDS011;40161;39.768;2.722;2022-09-21T13:57:49;3.75;;;1.80;;
54247;SDS011;40161;39.768;2.722;2022-09-21T14:08:04;6.40;;;1.60;;
54247;SDS011;40161;39.768;2.722;2022-09-21T14:18:57;3.13;;;1.48;;
54247;SDS011;40161;39.768;2.722;2022-09-21T14:21:23;6.15;;;1.70;;
54247;SDS011;40161;39.768;2.722;2022-09-21T14:27:15;4.88;;;1.67;;
54247;SDS011;40161;39.768;2.722;2022-09-21T14:30:16;4.45;;;1.90;;
54247;SDS011;40161;39.768;2.722;2022-09-21T14:32:45;6.25;;;1.70;;
54247;SDS011;40161;39.768;2.722;2022-09-21T14:35:15;5.75;;;1.58;;
54247;SDS011;40161;39.768;2.722;2022-09-21T14:37:48;4.97;;;1.88;;
54247;SDS011;40161;39.768;2.722;2022-09-21T14:40:17;4.32;;;1.60;;
54247;SDS011;40161;39.768;2.722;2022-09-21T14:42:48;5.00;;;1.58;;
54247;SDS011;40161;39.768;2.722;2022-09-21T14:45:18;4.28;;;1.50;;
54247;SDS011;40161;39.768;2.722;2022-09-21T14:53:29;3.88;;;1.67;;
54247;SDS011;40161;39.768;2.722;2022-09-21T14:56:29;4.25;;;1.50;;
54247;SDS011;40161;39.768;2.722;2022-09-21T14:59:01;5.35;;;1.70;;
54247;SDS011;40161;39.768;2.722;2022-09-21T15:01:39;4.97;;;1.50;;
54247;SDS011;40161;39.768;2.722;2022-09-21T15:10:20;3.90;;;1.67;;
54247;SDS011;40161;39.768;2.722;2022-09-21T15:19:01;3.55;;;1.50;;
54247;SDS011;40161;39.768;2.722;2022-09-21T15:21:39;6.75;;;1.73;;
54247;SDS011;40161;39.768;2.722;2022-09-21T15:24:27;6.63;;;1.60;;
54247;SDS011;40161;39.768;2.722;2022-09-21T15:27:07;5.80;;;1.75;;
54247;SDS011;40161;39.768;2.722;2022-09-21T15:29:36;4.43;;;1.90;;
54247;SDS011;40161;39.768;2.722;2022-09-21T15:32:04;4.18;;;1.70;;
54247;SDS011;40161;39.768;2.722;2022-09-21T15:34:31;5.30;;;1.50;;
54247;SDS011;40161;39.768;2.722;2022-09-21T15:37:15;4.25;;;1.73;;
54247;SDS011;40161;39.768;2.722;2022-09-21T15:39:41;4.85;;;1.65;;
54247;SDS011;40161;39.768;2.722;2022-09-21T15:44:47;4.63;;;1.60;;
54247;SDS011;40161;39.768;2.722;2022-09-21T15:47:20;3.90;;;1.67;;
54247;SDS011;40161;39.768;2.722;2022-09-21T15:49:47;3.08;;;1.58;;
54247;SDS011;40161;39.768;2.722;2022-09-21T15:52:17;4.18;;;1.70;;
54247;SDS011;40161;39.768;2.722;2022-09-21T15:54:54;3.22;;;1.50;;
54247;SDS011;40161;39.768;2.722;2022-09-21T15:59:57;4.13;;;1.77;;
54247;SDS011;40161;39.768;2.722;2022-09-21T16:02:29;5.15;;;1.95;;
54247;SDS011;40161;39.768;2.722;2022-09-21T16:05:01;6.30;;;1.90;;
54247;SDS011;40161;39.768;2.722;2022-09-21T16:07:30;4.45;;;1.60;;
54247;SDS011;40161;39.768;2.722;2022-09-21T16:09:57;4.85;;;1.67;;
54247;SDS011;40161;39.768;2.722;2022-09-21T16:12:36;4.50;;;1.60;;
54247;SDS011;40161;39.768;2.722;2022-09-21T16:15:06;5.35;;;2.47;;
54247;SDS011;40161;39.768;2.722;2022-09-21T16:20:40;4.22;;;1.70;;
54247;SDS011;40161;39.768;2.722;2022-09-21T16:23:12;4.63;;;1.98;;
54247;SDS011;40161;39.768;2.722;2022-09-21T16:25:56;4.10;;;1.80;;
54247;SDS011;40161;39.768;2.722;2022-09-21T16:28:26;4.18;;;1.65;;
54247;SDS011;40161;39.768;2.722;2022-09-21T16:30:54;4.88;;;1.73;;
54247;SDS011;40161;39.768;2.722;2022-09-21T16:38:58;6.45;;;2.30;;
54247;SDS011;40161;39.768;2.722;2022-09-21T16:41:44;4.45;;;1.65;;
54247;SDS011;40161;39.768;2.722;2022-09-21T16:44:16;3.60;;;1.70;;
54247;SDS011;40161;39.768;2.722;2022-09-21T16:46:45;6.13;;;1.90;;
54247;SDS011;40161;39.768;2.722;2022-09-21T16:49:13;3.22;;;1.60;;
54247;SDS011;40161;39.768;2.722;2022-09-21T16:51:44;5.03;;;1.70;;
54247;SDS011;40161;39.768;2.722;2022-09-21T16:54:17;6.18;;;1.50;;
54247;SDS011;40161;39.768;2.722;2022-09-21T16:56:46;3.80;;;1.67;;
54247;SDS011;40161;39.768;2.722;2022-09-21T16:59:13;5.43;;;1.50;;
54247;SDS011;40161;39.768;2.722;2022-09-21T17:01:45;4.28;;;1.40;;
54247;SDS011;40161;39.768;2.722;2022-09-21T17:04:15;6.05;;;1.70;;
54247;SDS011;40161;39.768;2.722;2022-09-21T17:06:44;5.40;;;2.05;;
54247;SDS011;40161;39.768;2.722;2022-09-21T17:11:59;4.72;;;1.63;;
54247;SDS011;40161;39.768;2.722;2022-09-21T17:14:27;5.90;;;1.38;;
54247;SDS011;40161;39.768;2.722;2022-09-21T17:16:57;5.43;;;1.65;;
54247;SDS011;40161;39.768;2.722;2022-09-21T17:19:22;6.78;;;1.50;;
54247;SDS011;40161;39.768;2.722;2022-09-21T17:21:49;5.53;;;1.77;;
54247;SDS011;40161;39.768;2.722;2022-09-21T17:24:15;5.18;;;1.75;;
54247;SDS011;40161;39.768;2.722;2022-09-21T17:26:41;5.50;;;1.40;;
54247;SDS011;40161;39.768;2.722;2022-09-21T17:29:13;4.47;;;1.20;;
54247;SDS011;40161;39.768;2.722;2022-09-21T17:31:50;4.90;;;1.90;;
54247;SDS011;40161;39.768;2.722;2022-09-21T17:34:28;3.53;;;1.52;;
54247;SDS011;40161;39.768;2.722;2022-09-21T17:36:58;5.60;;;1.45;;
54247;SDS011;40161;39.768;2.722;2022-09-21T17:39:24;4.90;;;1.30;;
54247;SDS011;40161;39.768;2.722;2022-09-21T17:41:50;4.82;;;1.65;;
54247;SDS011;40161;39.768;2.722;2022-09-21T17:44:30;4.18;;;1.55;;
54247;SDS011;40161;39.768;2.722;2022-09-21T17:47:21;3.55;;;1.40;;
54247;SDS011;40161;39.768;2.722;2022-09-21T17:50:37;3.67;;;1.50;;
54247;SDS011;40161;39.768;2.722;2022-09-21T17:52:51;4.80;;;1.50;;
54247;SDS011;40161;39.768;2.722;2022-09-21T17:55:42;4.53;;;1.40;;
54247;SDS011;40161;39.768;2.722;2022-09-21T18:03:45;3.83;;;1.33;;
54247;SDS011;40161;39.768;2.722;2022-09-21T18:06:11;2.38;;;1.30;;
54247;SDS011;40161;39.768;2.722;2022-09-21T18:08:38;3.88;;;1.60;;
54247;SDS011;40161;39.768;2.722;2022-09-21T18:13:58;3.40;;;1.50;;
54247;SDS011;40161;39.768;2.722;2022-09-21T18:16:49;5.70;;;1.65;;
54247;SDS011;40161;39.768;2.722;2022-09-21T18:22:23;3.25;;;1.30;;
54247;SDS011;40161;39.768;2.722;2022-09-21T18:25:11;5.10;;;1.60;;
54247;SDS011;40161;39.768;2.722;2022-09-21T18:27:50;4.63;;;1.58;;
54247;SDS011;40161;39.768;2.722;2022-09-21T18:30:18;3.50;;;1.30;;
54247;SDS011;40161;39.768;2.722;2022-09-21T18:47:00;5.35;;;1.60;;
54247;SDS011;40161;39.768;2.722;2022-09-21T18:54:59;5.70;;;1.90;;
54247;SDS011;40161;39.768;2.722;2022-09-21T18:57:26;4.22;;;1.50;;
54247;SDS011;40161;39.768;2.722;2022-09-21T18:59:56;4.47;;;1.70;;
54247;SDS011;40161;39.768;2.722;2022-09-21T19:02:23;4.03;;;1.48;;
54247;SDS011;40161;39.768;2.722;2022-09-21T19:04:49;3.15;;;1.63;;
54247;SDS011;40161;39.768;2.722;2022-09-21T19:10:27;5.28;;;1.67;;
54247;SDS011;40161;39.768;2.722;2022-09-21T19:13:09;3.53;;;1.67;;
54247;SDS011;40161;39.768;2.722;2022-09-21T19:16:19;5.13;;;1.60;;
54247;SDS011;40161;39.768;2.722;2022-09-21T19:19:13;3.25;;;1.35;;
54247;SDS011;40161;39.768;2.722;2022-09-21T19:22:21;6.25;;;1.50;;